sensor_id;sensor_type;location;lat;lon;timestamp;temperature;humidity
53643;DHT22;39546;45.534;12.048;2023-03-24T00:03:53;16.70;81.30
53643;DHT22;39546;45.534;12.048;2023-03-24T00:09:55;16.70;81.60
53643;DHT22;39546;45.534;12.048;2023-03-24T00:15:58;16.80;81.60
53643;DHT22;39546;45.534;12.048;2023-03-24T00:22:00;16.80;81.90
53643;DHT22;39546;45.534;12.048;2023-03-24T00:28:03;16.80;81.60
53643;DHT22;39546;45.534;12.048;2023-03-24T00:34:08;16.70;81.80
53643;DHT22;39546;45.534;12.048;2023-03-24T00:40:16;16.60;82.00
53643;DHT22;39546;45.534;12.048;2023-03-24T00:46:18;16.50;81.90
53643;DHT22;39546;45.534;12.048;2023-03-24T00:52:30;16.50;81.60
53643;DHT22;39546;45.534;12.048;2023-03-24T00:58:35;16.30;81.70
53643;DHT22;39546;45.534;12.048;2023-03-24T01:04:37;16.30;81.70
53643;DHT22;39546;45.534;12.048;2023-03-24T01:10:40;16.20;81.70
53643;DHT22;39546;45.534;12.048;2023-03-24T01:16:51;16.10;81.70
53643;DHT22;39546;45.534;12.048;2023-03-24T01:22:54;16.10;81.50
53643;DHT22;39546;45.534;12.048;2023-03-24T01:28:56;16.10;81.50
53643;DHT22;39546;45.534;12.048;2023-03-24T01:34:58;16.00;81.30
53643;DHT22;39546;45.534;12.048;2023-03-24T01:41:02;16.00;81.30
53643;DHT22;39546;45.534;12.048;2023-03-24T01:47:07;16.00;81.00
53643;DHT22;39546;45.534;12.048;2023-03-24T01:53:10;15.90;80.90
53643;DHT22;39546;45.534;12.048;2023-03-24T01:59:19;15.60;81.10
53643;DHT22;39546;45.534;12.048;2023-03-24T02:05:30;15.50;81.60
53643;DHT22;39546;45.534;12.048;2023-03-24T02:11:34;15.50;81.20
53643;DHT22;39546;45.534;12.048;2023-03-24T02:55:34;15.70;81.20
53643;DHT22;39546;45.534;12.048;2023-03-24T03:07:45;15.70;81.00
53643;DHT22;39546;45.534;12.048;2023-03-24T03:14:01;15.70;81.00
53643;DHT22;39546;45.534;12.048;2023-03-24T03:20:17;15.70;80.90
53643;DHT22;39546;45.534;12.048;2023-03-24T03:26:23;15.70;80.90
53643;DHT22;39546;45.534;12.048;2023-03-24T03:32:34;15.60;80.80
53643;DHT22;39546;45.534;12.048;2023-03-24T03:44:42;15.60;80.80
53643;DHT22;39546;45.534;12.048;2023-03-24T03:50:45;15.60;81.00
53643;DHT22;39546;45.534;12.048;2023-03-24T03:56:48;15.50;81.30
53643;DHT22;39546;45.534;12.048;2023-03-24T04:09:38;15.30;81.30
53643;DHT22;39546;45.534;12.048;2023-03-24T04:15:48;15.30;81.40
53643;DHT22;39546;45.534;12.048;2023-03-24T04:35:06;15.20;81.40
53643;DHT22;39546;45.534;12.048;2023-03-24T04:41:13;15.20;81.40
53643;DHT22;39546;45.534;12.048;2023-03-24T04:47:24;15.20;81.50
53643;DHT22;39546;45.534;12.048;2023-03-24T04:53:30;15.10;81.70
53643;DHT22;39546;45.534;12.048;2023-03-24T04:59:33;15.10;81.60
53643;DHT22;39546;45.534;12.048;2023-03-24T05:05:36;15.30;81.90
53643;DHT22;39546;45.534;12.048;2023-03-24T05:11:38;15.50;81.50
53643;DHT22;39546;45.534;12.048;2023-03-24T05:17:41;15.60;81.30
53643;DHT22;39546;45.534;12.048;2023-03-24T05:23:43;15.40;81.40
53643;DHT22;39546;45.534;12.048;2023-03-24T05:29:46;15.50;81.70
53643;DHT22;39546;45.534;12.048;2023-03-24T05:35:50;15.30;81.60
53643;DHT22;39546;45.534;12.048;2023-03-24T05:41:52;15.20;81.80
53643;DHT22;39546;45.534;12.048;2023-03-24T05:47:55;15.20;81.60
53643;DHT22;39546;45.534;12.048;2023-03-24T05:53:58;14.70;81.70
53643;DHT22;39546;45.534;12.048;2023-03-24T06:00:01;14.70;82.10
53643;DHT22;39546;45.534;12.048;2023-03-24T06:06:15;15.00;82.40
53643;DHT22;39546;45.534;12.048;2023-03-24T06:12:19;15.10;82.70
53643;DHT22;39546;45.534;12.048;2023-03-24T06:18:27;15.30;83.00
53643;DHT22;39546;45.534;12.048;2023-03-24T06:24:30;15.50;83.00
53643;DHT22;39546;45.534;12.048;2023-03-24T06:30:34;15.50;83.00
53643;DHT22;39546;45.534;12.048;2023-03-24T06:36:38;15.50;84.00
53643;DHT22;39546;45.534;12.048;2023-03-24T06:42:41;15.70;84.40
53643;DHT22;39546;45.534;12.048;2023-03-24T06:48:44;15.70;83.90
53643;DHT22;39546;45.534;12.048;2023-03-24T06:54:48;15.60;84.20
53643;DHT22;39546;45.534;12.048;2023-03-24T07:00:51;15.70;84.30
53643;DHT22;39546;45.534;12.048;2023-03-24T07:06:56;16.00;84.20
53643;DHT22;39546;45.534;12.048;2023-03-24T07:13:00;16.10;83.90
53643;DHT22;39546;45.534;12.048;2023-03-24T07:19:04;16.20;83.70
53643;DHT22;39546;45.534;12.048;2023-03-24T07:25:08;16.30;84.40
53643;DHT22;39546;45.534;12.048;2023-03-24T07:31:11;16.30;84.10
53643;DHT22;39546;45.534;12.048;2023-03-24T07:37:14;16.00;84.20
53643;DHT22;39546;45.534;12.048;2023-03-24T07:43:16;15.90;84.40
53643;DHT22;39546;45.534;12.048;2023-03-24T07:49:20;16.10;84.30
53643;DHT22;39546;45.534;12.048;2023-03-24T07:55:23;16.30;83.80
53643;DHT22;39546;45.534;12.048;2023-03-24T08:01:25;16.40;83.60
53643;DHT22;39546;45.534;12.048;2023-03-24T08:07:28;16.40;84.00
53643;DHT22;39546;45.534;12.048;2023-03-24T08:13:30;16.20;83.80
53643;DHT22;39546;45.534;12.048;2023-03-24T08:19:32;16.20;84.40
53643;DHT22;39546;45.534;12.048;2023-03-24T08:25:34;16.40;84.60
53643;DHT22;39546;45.534;12.048;2023-03-24T08:31:38;16.60;84.40
53643;DHT22;39546;45.534;12.048;2023-03-24T08:37:41;16.70;84.30
53643;DHT22;39546;45.534;12.048;2023-03-24T08:43:46;16.80;83.60
53643;DHT22;39546;45.534;12.048;2023-03-24T08:49:48;16.80;83.60
53643;DHT22;39546;45.534;12.048;2023-03-24T08:55:52;16.80;84.10
53643;DHT22;39546;45.534;12.048;2023-03-24T09:01:54;16.80;84.10
53643;DHT22;39546;45.534;12.048;2023-03-24T09:07:56;16.80;84.40
53643;DHT22;39546;45.534;12.048;2023-03-24T09:14:01;16.90;84.30
53643;DHT22;39546;45.534;12.048;2023-03-24T09:20:06;16.80;83.90
53643;DHT22;39546;45.534;12.048;2023-03-24T09:26:12;16.90;84.40
53643;DHT22;39546;45.534;12.048;2023-03-24T09:32:14;17.10;84.50
53643;DHT22;39546;45.534;12.048;2023-03-24T09:38:16;17.20;83.50
53643;DHT22;39546;45.534;12.048;2023-03-24T09:50:40;16.80;83.50
53643;DHT22;39546;45.534;12.048;2023-03-24T09:56:45;16.80;84.00
53643;DHT22;39546;45.534;12.048;2023-03-24T10:02:49;16.80;84.00
53643;DHT22;39546;45.534;12.048;2023-03-24T10:09:22;16.90;83.50
53643;DHT22;39546;45.534;12.048;2023-03-24T10:15:31;16.90;83.40
53643;DHT22;39546;45.534;12.048;2023-03-24T10:21:37;16.90;83.70
53643;DHT22;39546;45.534;12.048;2023-03-24T10:33:52;17.40;83.70
53643;DHT22;39546;45.534;12.048;2023-03-24T10:39:55;17.30;83.30
53643;DHT22;39546;45.534;12.048;2023-03-24T10:45:58;17.50;84.10
53643;DHT22;39546;45.534;12.048;2023-03-24T10:52:01;17.60;83.90
53643;DHT22;39546;45.534;12.048;2023-03-24T10:58:16;17.60;84.20
53643;DHT22;39546;45.534;12.048;2023-03-24T11:04:20;17.60;84.10
53643;DHT22;39546;45.534;12.048;2023-03-24T11:10:26;17.70;84.10
53643;DHT22;39546;45.534;12.048;2023-03-24T11:16:36;17.80;83.80
53643;DHT22;39546;45.534;12.048;2023-03-24T11:22:38;17.80;83.60
53643;DHT22;39546;45.534;12.048;2023-03-24T11:28:45;17.70;83.50
53643;DHT22;39546;45.534;12.048;2023-03-24T11:34:50;17.70;82.70
53643;DHT22;39546;45.534;12.048;2023-03-24T11:41:00;17.90;83.00
53643;DHT22;39546;45.534;12.048;2023-03-24T11:53:26;19.20;83.00
53643;DHT22;39546;45.534;12.048;2023-03-24T12:05:46;20.00;81.40
53643;DHT22;39546;45.534;12.048;2023-03-24T12:12:04;20.20;80.70
53643;DHT22;39546;45.534;12.048;2023-03-24T13:09:16;20.70;77.00
53643;DHT22;39546;45.534;12.048;2023-03-24T13:15:25;20.90;77.70
53643;DHT22;39546;45.534;12.048;2023-03-24T13:21:29;21.00;78.30
53643;DHT22;39546;45.534;12.048;2023-03-24T13:27:38;21.30;78.80
53643;DHT22;39546;45.534;12.048;2023-03-24T13:33:42;21.50;77.70
53643;DHT22;39546;45.534;12.048;2023-03-24T13:39:46;21.70;77.60
53643;DHT22;39546;45.534;12.048;2023-03-24T13:45:51;21.80;78.40
53643;DHT22;39546;45.534;12.048;2023-03-24T13:52:02;22.00;78.90
53643;DHT22;39546;45.534;12.048;2023-03-24T13:58:10;22.00;78.90
53643;DHT22;39546;45.534;12.048;2023-03-24T14:11:49;22.10;79.10
53643;DHT22;39546;45.534;12.048;2023-03-24T14:17:53;22.10;78.10
53643;DHT22;39546;45.534;12.048;2023-03-24T14:23:56;22.00;77.90
53643;DHT22;39546;45.534;12.048;2023-03-24T14:36:33;21.70;77.90
53643;DHT22;39546;45.534;12.048;2023-03-24T14:43:51;21.50;78.50
53643;DHT22;39546;45.534;12.048;2023-03-24T14:49:29;21.40;78.40
53643;DHT22;39546;45.534;12.048;2023-03-24T14:55:33;21.30;77.90
53643;DHT22;39546;45.534;12.048;2023-03-24T15:01:36;20.90;77.10
53643;DHT22;39546;45.534;12.048;2023-03-24T15:07:40;20.90;76.30
53643;DHT22;39546;45.534;12.048;2023-03-24T15:13:49;20.70;76.30
53643;DHT22;39546;45.534;12.048;2023-03-24T15:19:53;20.70;76.40
53643;DHT22;39546;45.534;12.048;2023-03-24T15:25:56;21.10;76.40
53643;DHT22;39546;45.534;12.048;2023-03-24T15:32:20;21.70;77.50
53643;DHT22;39546;45.534;12.048;2023-03-24T15:38:30;21.70;76.90
53643;DHT22;39546;45.534;12.048;2023-03-24T15:44:36;22.00;77.00
53643;DHT22;39546;45.534;12.048;2023-03-24T15:50:52;22.20;76.90
53643;DHT22;39546;45.534;12.048;2023-03-24T15:57:14;22.20;77.50
53643;DHT22;39546;45.534;12.048;2023-03-24T16:03:17;22.40;77.60
53643;DHT22;39546;45.534;12.048;2023-03-24T16:09:21;22.60;76.70
53643;DHT22;39546;45.534;12.048;2023-03-24T16:15:24;22.70;76.20
53643;DHT22;39546;45.534;12.048;2023-03-24T16:21:28;22.70;76.40
53643;DHT22;39546;45.534;12.048;2023-03-24T16:27:30;22.70;76.50
53643;DHT22;39546;45.534;12.048;2023-03-24T16:33:32;22.60;75.90
53643;DHT22;39546;45.534;12.048;2023-03-24T16:39:36;22.80;76.30
53643;DHT22;39546;45.534;12.048;2023-03-24T16:45:38;22.70;76.30
53643;DHT22;39546;45.534;12.048;2023-03-24T16:51:41;22.30;76.70
53643;DHT22;39546;45.534;12.048;2023-03-24T16:57:43;22.00;76.50
53643;DHT22;39546;45.534;12.048;2023-03-24T17:03:46;21.40;77.40
53643;DHT22;39546;45.534;12.048;2023-03-24T17:09:50;21.10;78.20
53643;DHT22;39546;45.534;12.048;2023-03-24T17:15:52;20.80;78.70
53643;DHT22;39546;45.534;12.048;2023-03-24T17:22:03;20.50;78.40
53643;DHT22;39546;45.534;12.048;2023-03-24T17:28:14;20.10;78.00
53643;DHT22;39546;45.534;12.048;2023-03-24T17:34:16;19.90;78.20
53643;DHT22;39546;45.534;12.048;2023-03-24T17:40:19;19.80;78.50
53643;DHT22;39546;45.534;12.048;2023-03-24T17:46:21;19.80;78.50
53643;DHT22;39546;45.534;12.048;2023-03-24T17:52:23;19.30;78.00
53643;DHT22;39546;45.534;12.048;2023-03-24T17:58:26;19.20;79.20
53643;DHT22;39546;45.534;12.048;2023-03-24T18:04:28;19.30;79.60
53643;DHT22;39546;45.534;12.048;2023-03-24T18:10:31;19.30;79.90
53643;DHT22;39546;45.534;12.048;2023-03-24T18:16:36;19.30;79.80
53643;DHT22;39546;45.534;12.048;2023-03-24T18:22:40;19.30;79.60
53643;DHT22;39546;45.534;12.048;2023-03-24T18:28:43;19.30;80.10
53643;DHT22;39546;45.534;12.048;2023-03-24T18:34:46;19.30;80.00
53643;DHT22;39546;45.534;12.048;2023-03-24T18:41:08;19.40;80.20
53643;DHT22;39546;45.534;12.048;2023-03-24T18:47:18;19.30;79.80
53643;DHT22;39546;45.534;12.048;2023-03-24T18:53:21;19.30;80.20
53643;DHT22;39546;45.534;12.048;2023-03-24T18:59:23;19.20;80.60
53643;DHT22;39546;45.534;12.048;2023-03-24T19:05:26;19.10;80.30
53643;DHT22;39546;45.534;12.048;2023-03-24T19:11:30;18.80;80.70
53643;DHT22;39546;45.534;12.048;2023-03-24T19:17:32;18.70;81.00
53643;DHT22;39546;45.534;12.048;2023-03-24T19:23:34;18.80;80.90
53643;DHT22;39546;45.534;12.048;2023-03-24T19:29:37;18.90;80.80
53643;DHT22;39546;45.534;12.048;2023-03-24T19:35:39;19.00;81.10
53643;DHT22;39546;45.534;12.048;2023-03-24T19:41:41;18.90;81.50
53643;DHT22;39546;45.534;12.048;2023-03-24T19:47:44;18.90;82.00
53643;DHT22;39546;45.534;12.048;2023-03-24T19:53:49;18.90;81.90
53643;DHT22;39546;45.534;12.048;2023-03-24T19:59:51;18.80;81.70
53643;DHT22;39546;45.534;12.048;2023-03-24T20:05:53;18.60;81.80
53643;DHT22;39546;45.534;12.048;2023-03-24T20:11:56;18.50;82.00
53643;DHT22;39546;45.534;12.048;2023-03-24T20:17:58;18.50;82.10
53643;DHT22;39546;45.534;12.048;2023-03-24T20:24:00;18.70;81.80
53643;DHT22;39546;45.534;12.048;2023-03-24T20:30:05;18.80;82.50
53643;DHT22;39546;45.534;12.048;2023-03-24T20:36:09;18.90;82.90
53643;DHT22;39546;45.534;12.048;2023-03-24T20:42:11;19.00;82.60
53643;DHT22;39546;45.534;12.048;2023-03-24T20:48:14;19.00;82.30
53643;DHT22;39546;45.534;12.048;2023-03-24T20:54:16;18.80;81.80
53643;DHT22;39546;45.534;12.048;2023-03-24T21:00:19;18.80;81.40
53643;DHT22;39546;45.534;12.048;2023-03-24T21:06:22;18.50;80.80
53643;DHT22;39546;45.534;12.048;2023-03-24T21:12:24;18.10;80.40
53643;DHT22;39546;45.534;12.048;2023-03-24T21:18:27;18.00;80.70
53643;DHT22;39546;45.534;12.048;2023-03-24T21:24:33;17.90;80.00
53643;DHT22;39546;45.534;12.048;2023-03-24T21:30:35;17.70;80.20
53643;DHT22;39546;45.534;12.048;2023-03-24T21:36:38;18.00;80.90
53643;DHT22;39546;45.534;12.048;2023-03-24T21:42:41;18.20;81.40
53643;DHT22;39546;45.534;12.048;2023-03-24T21:48:43;18.20;81.10
53643;DHT22;39546;45.534;12.048;2023-03-24T21:54:51;18.20;81.00
53643;DHT22;39546;45.534;12.048;2023-03-24T22:00:54;18.20;81.50
53643;DHT22;39546;45.534;12.048;2023-03-24T22:06:56;18.10;82.60
53643;DHT22;39546;45.534;12.048;2023-03-24T22:13:01;18.10;82.50
53643;DHT22;39546;45.534;12.048;2023-03-24T22:19:03;18.10;82.50
53643;DHT22;39546;45.534;12.048;2023-03-24T22:25:07;18.10;82.20
53643;DHT22;39546;45.534;12.048;2023-03-24T22:31:15;18.00;82.10
53643;DHT22;39546;45.534;12.048;2023-03-24T22:37:17;18.00;82.10
53643;DHT22;39546;45.534;12.048;2023-03-24T22:43:20;17.90;81.70
53643;DHT22;39546;45.534;12.048;2023-03-24T22:49:22;17.80;81.70
53643;DHT22;39546;45.534;12.048;2023-03-24T22:55:24;17.40;82.00
53643;DHT22;39546;45.534;12.048;2023-03-24T23:01:27;17.30;82.40
53643;DHT22;39546;45.534;12.048;2023-03-24T23:07:30;17.30;82.60
53643;DHT22;39546;45.534;12.048;2023-03-24T23:13:33;17.30;82.40
53643;DHT22;39546;45.534;12.048;2023-03-24T23:19:36;17.40;82.10
53643;DHT22;39546;45.534;12.048;2023-03-24T23:26:04;17.30;82.00
53643;DHT22;39546;45.534;12.048;2023-03-24T23:32:07;17.20;82.20
53643;DHT22;39546;45.534;12.048;2023-03-24T23:38:09;17.10;82.20
53643;DHT22;39546;45.534;12.048;2023-03-24T23:44:12;17.00;82.30
53643;DHT22;39546;45.534;12.048;2023-03-24T23:50:16;17.00;82.00
53643;DHT22;39546;45.534;12.048;2023-03-24T23:56:19;17.00;81.70
